createdAt,value
2023-02-14T00:02:26.741Z,6.30
2023-02-14T00:04:54.205Z,6.50
2023-02-14T00:07:21.676Z,7.63
2023-02-14T00:09:49.011Z,7.57
2023-02-14T00:12:16.396Z,7.47
2023-02-14T00:15:03.626Z,6.80
2023-02-14T00:17:31.021Z,6.63
2023-02-14T00:19:58.388Z,6.57
2023-02-14T00:22:25.877Z,7.13
2023-02-14T00:24:53.231Z,7.57
2023-02-14T00:27:20.621Z,7.67
2023-02-14T00:29:48.059Z,7.67
2023-02-14T00:32:15.604Z,6.93
2023-02-14T00:34:43.243Z,6.67
2023-02-14T00:37:10.700Z,7.40
2023-02-14T00:39:37.993Z,7.80
2023-02-14T00:42:05.412Z,8.30
2023-02-14T00:44:32.842Z,7.37
2023-02-14T00:47:00.339Z,8.13
2023-02-14T00:49:27.788Z,8.00
2023-02-14T00:51:55.154Z,9.27
2023-02-14T00:54:22.510Z,7.63
2023-02-14T00:56:49.848Z,8.10
2023-02-14T00:59:17.326Z,9.07
2023-02-14T01:01:44.700Z,7.20
2023-02-14T01:04:12.230Z,7.07
2023-02-14T01:06:39.582Z,8.37
2023-02-14T01:09:07.026Z,7.47
2023-02-14T01:11:34.517Z,7.73
2023-02-14T01:14:02.203Z,7.47
2023-02-14T01:16:30.293Z,7.90
2023-02-14T01:18:59.306Z,7.80
2023-02-14T01:21:28.401Z,6.97
2023-02-14T01:23:56.378Z,7.20
2023-02-14T01:26:24.575Z,6.40
2023-02-14T01:28:52.129Z,7.50
2023-02-14T01:31:21.958Z,6.93
2023-02-14T01:33:50.489Z,7.63
2023-02-14T01:36:19.031Z,6.70
2023-02-14T01:38:46.827Z,8.00
2023-02-14T01:41:14.344Z,8.07
2023-02-14T01:44:01.583Z,8.37
2023-02-14T01:46:30.295Z,7.10
2023-02-14T01:49:02.415Z,7.03
2023-02-14T01:51:30.964Z,7.50
2023-02-14T01:53:58.779Z,8.57
2023-02-14T01:56:29.495Z,6.70
2023-02-14T01:59:00.403Z,7.47
2023-02-14T02:01:28.490Z,8.20
2023-02-14T02:03:57.035Z,7.50
2023-02-14T02:06:31.961Z,8.37
2023-02-14T02:09:19.304Z,7.35
2023-02-14T02:11:46.843Z,7.27
2023-02-14T02:14:16.054Z,8.20
2023-02-14T02:16:49.106Z,8.27
2023-02-14T02:19:36.384Z,7.23
2023-02-14T02:22:23.610Z,6.93
2023-02-14T02:25:10.828Z,7.13
2023-02-14T02:27:58.020Z,8.13
2023-02-14T02:30:45.423Z,7.80
2023-02-14T02:33:32.815Z,8.00
2023-02-14T02:36:20.138Z,7.03
2023-02-14T02:38:56.200Z,8.77
2023-02-14T02:41:43.456Z,8.43
2023-02-14T02:44:30.798Z,8.37
2023-02-14T02:47:17.956Z,8.13
2023-02-14T02:50:11.699Z,8.37
2023-02-14T02:53:09.651Z,8.93
2023-02-14T02:56:01.633Z,8.00
2023-02-14T02:58:32.299Z,7.53
2023-02-14T03:01:01.459Z,7.77
2023-02-14T03:03:50.861Z,8.60
2023-02-14T03:06:57.917Z,9.43
2023-02-14T03:09:45.122Z,7.87
2023-02-14T03:12:32.338Z,8.23
2023-02-14T03:15:17.347Z,8.97
2023-02-14T03:18:04.525Z,9.07
2023-02-14T03:20:51.827Z,8.30
2023-02-14T03:23:39.057Z,10.57
2023-02-14T03:26:27.499Z,9.47
2023-02-14T03:29:00.544Z,8.33
2023-02-14T03:31:47.899Z,8.23
2023-02-14T03:34:18.032Z,8.07
2023-02-14T03:36:49.785Z,8.43
2023-02-14T03:39:37.056Z,9.27
2023-02-14T03:42:07.853Z,7.87
2023-02-14T03:44:36.074Z,8.47
2023-02-14T03:47:08.397Z,8.43
2023-02-14T03:49:37.927Z,8.63
2023-02-14T03:52:06.356Z,9.50
2023-02-14T03:54:34.587Z,8.83
2023-02-14T03:57:21.949Z,8.33
2023-02-14T03:59:49.405Z,7.90
2023-02-14T04:02:25.428Z,7.20
2023-02-14T04:04:53.821Z,7.73
2023-02-14T04:07:22.462Z,7.23
2023-02-14T04:09:50.065Z,8.47
2023-02-14T04:12:21.686Z,9.37
2023-02-14T04:14:51.296Z,7.50
2023-02-14T04:17:38.468Z,8.93
2023-02-14T04:20:06.411Z,8.20
2023-02-14T04:22:33.804Z,9.43
2023-02-14T04:25:01.117Z,9.67
2023-02-14T04:27:28.438Z,8.27
2023-02-14T04:29:55.885Z,9.13
2023-02-14T04:32:23.687Z,9.30
2023-02-14T04:34:51.141Z,8.47
2023-02-14T04:37:19.564Z,9.27
2023-02-14T04:39:47.254Z,9.70
2023-02-14T04:42:14.656Z,8.67
2023-02-14T04:44:42.100Z,9.60
2023-02-14T04:47:09.402Z,9.80
2023-02-14T04:49:36.840Z,8.93
2023-02-14T04:52:04.918Z,9.40
2023-02-14T04:54:32.455Z,10.80
2023-02-14T04:56:59.894Z,8.53
2023-02-14T04:59:27.458Z,8.67
2023-02-14T05:01:55.199Z,9.83
2023-02-14T05:04:22.643Z,9.20
2023-02-14T05:06:50.140Z,9.93
2023-02-14T05:09:17.479Z,9.77
2023-02-14T05:11:44.802Z,8.73
2023-02-14T05:14:13.827Z,8.47
2023-02-14T05:16:41.279Z,8.63
2023-02-14T05:19:09.044Z,8.60
2023-02-14T05:21:36.628Z,8.50
2023-02-14T05:24:04.014Z,9.77
2023-02-14T05:26:31.380Z,9.47
2023-02-14T05:28:58.787Z,8.83
2023-02-14T05:31:26.379Z,8.60
2023-02-14T05:33:53.785Z,11.30
2023-02-14T05:36:21.188Z,8.57
2023-02-14T05:38:48.561Z,8.40
2023-02-14T05:41:15.975Z,7.50
2023-02-14T05:43:43.405Z,9.40
2023-02-14T05:46:10.836Z,9.73
2023-02-14T05:48:38.261Z,10.00
2023-02-14T05:51:08.415Z,10.37
2023-02-14T05:53:36.058Z,10.33
2023-02-14T05:56:03.548Z,10.57
2023-02-14T05:58:31.231Z,9.57
2023-02-14T06:00:59.089Z,10.67
2023-02-14T06:03:26.787Z,13.10
2023-02-14T06:05:54.170Z,10.83
2023-02-14T06:08:21.568Z,10.20
2023-02-14T06:10:49.009Z,7.83
2023-02-14T06:13:16.484Z,9.87
2023-02-14T06:15:43.937Z,8.00
2023-02-14T06:18:11.395Z,9.00
2023-02-14T06:20:38.924Z,8.07
2023-02-14T06:23:06.312Z,8.50
2023-02-14T06:25:34.179Z,8.70
2023-02-14T06:28:01.680Z,7.93
2023-02-14T06:30:29.347Z,8.27
2023-02-14T06:32:57.040Z,7.03
2023-02-14T06:35:24.449Z,7.70
2023-02-14T06:37:51.767Z,8.50
2023-02-14T06:40:19.793Z,7.83
2023-02-14T06:42:47.215Z,8.63
2023-02-14T06:45:14.540Z,8.40
2023-02-14T06:47:41.968Z,8.33
2023-02-14T06:50:11.791Z,6.30
2023-02-14T06:52:39.612Z,6.27
2023-02-14T06:55:07.296Z,6.67
2023-02-14T06:57:34.633Z,9.03
2023-02-14T07:00:01.955Z,8.07
2023-02-14T07:02:29.341Z,8.37
2023-02-14T07:04:56.678Z,7.87
2023-02-14T07:07:24.018Z,7.43
2023-02-14T07:09:52.132Z,7.40
2023-02-14T07:12:19.513Z,7.57
2023-02-14T07:14:46.815Z,6.90
2023-02-14T07:17:14.133Z,7.73
2023-02-14T07:19:41.480Z,7.40
2023-02-14T07:22:08.778Z,8.83
2023-02-14T07:24:36.070Z,7.03
2023-02-14T07:27:03.414Z,7.07
2023-02-14T07:29:30.743Z,7.97
2023-02-14T07:31:58.110Z,9.07
2023-02-14T07:34:27.374Z,10.30
2023-02-14T07:36:54.712Z,9.37
2023-02-14T07:39:22.122Z,7.83
2023-02-14T07:41:49.535Z,10.13
2023-02-14T07:44:16.847Z,8.10
2023-02-14T07:46:44.238Z,7.33
2023-02-14T07:49:12.016Z,8.03
2023-02-14T07:51:39.397Z,7.17
2023-02-14T07:54:06.782Z,7.90
2023-02-14T07:56:34.105Z,7.90
2023-02-14T07:59:01.454Z,7.83
2023-02-14T08:01:28.876Z,7.97
2023-02-14T08:03:56.211Z,7.27
2023-02-14T08:06:26.066Z,9.40
2023-02-14T08:08:53.446Z,7.90
2023-02-14T08:11:40.646Z,8.50
2023-02-14T08:14:07.988Z,10.63
2023-02-14T08:16:35.441Z,9.70
2023-02-14T08:19:02.987Z,8.60
2023-02-14T08:21:30.477Z,7.97
2023-02-14T08:23:58.086Z,6.97
2023-02-14T08:26:25.943Z,8.17
2023-02-14T08:28:53.287Z,9.07
2023-02-14T08:31:34.452Z,7.93
2023-02-14T08:34:02.299Z,8.03
2023-02-14T08:36:30.931Z,8.87
2023-02-14T08:38:58.290Z,8.60
2023-02-14T08:41:25.734Z,9.17
2023-02-14T08:43:53.320Z,8.13
2023-02-14T08:46:20.764Z,8.43
2023-02-14T08:48:49.933Z,8.70
2023-02-14T08:51:17.423Z,7.73
2023-02-14T08:53:46.411Z,8.80
2023-02-14T08:56:14.799Z,8.87
2023-02-14T08:58:42.586Z,9.37
2023-02-14T09:01:10.995Z,8.87
2023-02-14T09:03:38.762Z,10.27
2023-02-14T09:06:07.278Z,9.60
2023-02-14T09:08:35.792Z,9.20
2023-02-14T09:11:15.069Z,9.93
2023-02-14T09:13:43.311Z,9.70
2023-02-14T09:16:11.738Z,8.87
2023-02-14T09:18:39.427Z,8.27
2023-02-14T09:21:09.040Z,8.87
2023-02-14T09:23:36.392Z,8.63
2023-02-14T09:26:05.609Z,9.37
2023-02-14T09:28:32.973Z,9.40
2023-02-14T09:31:08.562Z,8.70
2023-02-14T09:33:36.056Z,9.50
2023-02-14T09:36:18.847Z,8.87
2023-02-14T09:38:46.310Z,8.50
2023-02-14T09:41:33.525Z,9.33
2023-02-14T09:44:20.733Z,8.47
2023-02-14T09:46:51.541Z,10.33
2023-02-14T09:49:20.679Z,9.83
2023-02-14T09:51:51.012Z,8.57
2023-02-14T09:54:22.157Z,9.63
2023-02-14T09:56:54.104Z,9.73
2023-02-14T09:59:27.679Z,9.50
2023-02-14T10:02:00.252Z,9.93
2023-02-14T10:04:33.338Z,9.37
2023-02-14T10:07:12.209Z,9.53
2023-02-14T10:09:59.456Z,10.60
2023-02-14T10:12:30.610Z,10.03
2023-02-14T10:15:00.325Z,10.63
2023-02-14T10:17:47.090Z,10.90
2023-02-14T10:20:25.142Z,9.07
2023-02-14T10:22:58.225Z,10.53
2023-02-14T10:25:29.212Z,10.10
2023-02-14T10:27:59.762Z,10.93
2023-02-14T10:30:27.293Z,10.97
2023-02-14T10:33:14.616Z,10.07
2023-02-14T10:35:50.457Z,9.70
2023-02-14T10:38:37.735Z,10.60
2023-02-14T10:41:12.429Z,9.20
2023-02-14T10:43:49.561Z,9.48
2023-02-14T10:46:25.133Z,11.07
2023-02-14T10:49:12.358Z,11.00
2023-02-14T10:51:43.702Z,9.67
2023-02-14T10:54:30.894Z,9.07
2023-02-14T10:57:10.848Z,8.63
2023-02-14T10:59:58.051Z,10.33
2023-02-14T11:02:26.770Z,9.00
2023-02-14T11:04:54.431Z,10.97
2023-02-14T11:07:22.270Z,10.80
2023-02-14T11:09:49.857Z,10.00
2023-02-14T11:12:34.479Z,9.57
2023-02-14T11:15:10.944Z,8.37
2023-02-14T11:17:38.256Z,8.10
2023-02-14T11:20:22.483Z,7.97
2023-02-14T11:22:50.273Z,7.90
2023-02-14T11:25:37.501Z,8.73
2023-02-14T11:28:06.875Z,8.77
2023-02-14T11:30:37.213Z,7.93
2023-02-14T11:33:04.783Z,7.40
2023-02-14T11:35:34.722Z,6.13
2023-02-14T11:38:03.679Z,8.03
2023-02-14T11:40:39.019Z,8.83
2023-02-14T11:45:42.817Z,10.00
2023-02-14T11:48:41.955Z,8.43
2023-02-14T11:51:13.933Z,8.40
2023-02-14T11:54:00.695Z,7.90
2023-02-14T11:56:43.829Z,8.07
2023-02-14T11:59:12.962Z,8.37
2023-02-14T12:01:40.321Z,8.50
2023-02-14T12:04:12.904Z,9.40
2023-02-14T12:06:40.461Z,10.57
2023-02-14T12:09:27.827Z,9.83
2023-02-14T12:12:15.200Z,10.43
2023-02-14T12:14:42.532Z,8.77
2023-02-14T12:17:29.752Z,9.17
2023-02-14T12:20:16.973Z,8.03
2023-02-14T12:22:47.042Z,9.67
2023-02-14T12:25:17.734Z,10.77
2023-02-14T12:28:06.169Z,10.37
2023-02-14T12:30:34.757Z,10.50
2023-02-14T12:33:02.614Z,11.83
2023-02-14T12:35:49.821Z,10.43
2023-02-14T12:38:36.997Z,11.50
2023-02-14T12:41:24.150Z,9.97
2023-02-14T12:43:54.485Z,11.60
2023-02-14T12:46:41.707Z,11.93
2023-02-14T12:49:28.991Z,11.00
2023-02-14T12:52:09.221Z,10.23
2023-02-14T12:54:42.837Z,11.23
2023-02-14T12:57:30.054Z,11.93
2023-02-14T13:00:03.978Z,12.57
2023-02-14T13:02:51.237Z,13.17
2023-02-14T13:05:23.461Z,11.47
2023-02-14T13:07:59.123Z,13.53
2023-02-14T13:10:46.341Z,13.57
2023-02-14T13:13:33.672Z,12.93
2023-02-14T13:16:20.872Z,13.17
2023-02-14T13:18:57.772Z,15.03
2023-02-14T13:21:26.351Z,12.33
2023-02-14T13:23:55.717Z,11.70
2023-02-14T13:26:25.534Z,11.33
2023-02-14T13:28:56.393Z,11.93
2023-02-14T13:31:24.123Z,11.97
2023-02-14T13:33:53.094Z,10.37
2023-02-14T13:39:57.375Z,9.57
2023-02-14T13:42:44.627Z,9.60
2023-02-14T13:45:32.919Z,10.10
2023-02-14T13:48:20.460Z,10.57
2023-02-14T13:51:07.805Z,12.40
2023-02-14T13:53:54.945Z,11.77
2023-02-14T13:56:38.228Z,11.77
2023-02-14T13:59:06.797Z,11.03
2023-02-14T14:01:54.716Z,10.70
2023-02-14T14:04:42.004Z,11.53
2023-02-14T14:07:30.945Z,10.63
2023-02-14T14:10:00.052Z,8.67
2023-02-14T14:12:47.320Z,10.63
2023-02-14T14:15:16.355Z,9.60
2023-02-14T14:18:03.601Z,11.23
2023-02-14T14:20:31.877Z,8.80
2023-02-14T14:23:01.297Z,11.50
2023-02-14T14:25:48.504Z,10.80
2023-02-14T14:28:20.227Z,9.60
2023-02-14T14:30:48.146Z,9.30
2023-02-14T14:33:35.630Z,10.33
2023-02-14T14:36:07.360Z,10.63
2023-02-14T14:38:35.540Z,10.90
2023-02-14T14:41:02.962Z,11.43
2023-02-14T14:43:32.719Z,10.77
2023-02-14T14:46:02.493Z,11.00
2023-02-14T14:48:34.668Z,10.53
2023-02-14T14:51:01.985Z,10.40
2023-02-14T14:53:36.623Z,11.53
2023-02-14T14:56:04.270Z,12.18
2023-02-14T14:58:33.494Z,9.50
2023-02-14T15:01:00.862Z,8.83
2023-02-14T15:03:30.907Z,9.27
2023-02-14T15:06:18.134Z,8.83
2023-02-14T15:08:45.924Z,8.57
2023-02-14T15:11:51.545Z,9.23
2023-02-14T15:14:21.199Z,8.70
2023-02-14T15:16:51.434Z,9.07
2023-02-14T15:19:23.098Z,11.20
2023-02-14T15:21:51.360Z,11.73
2023-02-14T15:24:19.480Z,14.30
2023-02-14T15:26:48.135Z,11.10
2023-02-14T15:29:32.727Z,9.30
2023-02-14T15:32:03.005Z,10.07
2023-02-14T15:34:32.583Z,10.23
2023-02-14T15:37:03.872Z,11.20
2023-02-14T15:39:36.400Z,11.73
2023-02-14T15:42:04.849Z,10.70
2023-02-14T15:44:32.518Z,10.87
2023-02-14T15:47:02.153Z,12.90
2023-02-14T15:49:35.826Z,13.93
2023-02-14T15:52:05.073Z,12.40
2023-02-14T15:54:34.545Z,11.97
2023-02-14T15:57:02.491Z,12.27
2023-02-14T15:59:31.377Z,14.27
2023-02-14T16:02:01.772Z,14.20
2023-02-14T16:04:31.115Z,14.23
2023-02-14T16:07:05.644Z,14.07
2023-02-14T16:09:34.722Z,18.25
2023-02-14T16:12:12.725Z,21.43
2023-02-14T16:14:42.512Z,13.47
2023-02-14T16:17:14.542Z,16.63
2023-02-14T16:19:43.403Z,13.27
2023-02-14T16:22:12.017Z,14.57
2023-02-14T16:24:40.537Z,14.13
2023-02-14T16:27:07.957Z,13.17
2023-02-14T16:29:36.848Z,11.70
2023-02-14T16:32:16.556Z,12.73
2023-02-14T16:34:44.437Z,16.73
2023-02-14T16:37:31.720Z,13.40
2023-02-14T16:40:00.673Z,12.63
2023-02-14T16:42:28.227Z,11.93
2023-02-14T16:44:55.658Z,13.70
2023-02-14T16:47:23.100Z,15.63
2023-02-14T16:49:53.053Z,14.53
2023-02-14T16:52:23.469Z,14.43
2023-02-14T16:54:51.238Z,13.27
2023-02-14T16:57:21.542Z,13.93
2023-02-14T16:59:48.894Z,14.40
2023-02-14T17:02:18.401Z,11.63
2023-02-14T17:04:46.080Z,13.50
2023-02-14T17:07:13.925Z,13.73
2023-02-14T17:09:43.284Z,14.13
2023-02-14T17:12:14.850Z,14.80
2023-02-14T17:14:43.669Z,13.17
2023-02-14T17:17:11.602Z,12.43
2023-02-14T17:19:39.083Z,14.13
2023-02-14T17:22:06.775Z,13.90
2023-02-14T17:24:34.311Z,14.70
2023-02-14T17:27:01.694Z,14.73
2023-02-14T17:29:29.176Z,13.10
2023-02-14T17:31:56.642Z,13.37
2023-02-14T17:34:24.147Z,13.07
2023-02-14T17:36:52.076Z,12.60
2023-02-14T17:39:19.721Z,13.77
2023-02-14T17:41:47.243Z,16.20
2023-02-14T17:44:14.588Z,16.03
2023-02-14T17:46:41.994Z,18.33
2023-02-14T17:49:09.973Z,18.50
2023-02-14T17:51:37.298Z,17.37
2023-02-14T17:54:04.775Z,17.07
2023-02-14T17:56:32.178Z,15.70
2023-02-14T17:58:59.951Z,16.63
2023-02-14T18:01:31.468Z,17.20
2023-02-14T18:03:58.992Z,15.13
2023-02-14T18:06:27.581Z,15.57
2023-02-14T18:08:58.014Z,16.73
2023-02-14T18:11:26.659Z,18.77
2023-02-14T18:13:55.366Z,21.00
2023-02-14T18:16:22.869Z,13.70
2023-02-14T18:18:50.312Z,13.47
2023-02-14T18:21:21.033Z,16.43
2023-02-14T18:23:48.497Z,12.33
2023-02-14T18:26:16.694Z,14.73
2023-02-14T18:28:44.019Z,11.00
2023-02-14T18:31:12.942Z,12.73
2023-02-14T18:33:40.412Z,15.93
2023-02-14T18:36:11.930Z,13.13
2023-02-14T18:38:39.799Z,11.80
2023-02-14T18:41:08.154Z,9.60
2023-02-14T18:43:36.030Z,10.87
2023-02-14T18:46:04.595Z,12.00
2023-02-14T18:48:32.522Z,11.13
2023-02-14T18:51:17.428Z,12.60
2023-02-14T18:53:45.543Z,11.02
2023-02-14T18:56:14.552Z,11.17
2023-02-14T18:58:43.555Z,10.73
2023-02-14T19:01:13.166Z,9.97
2023-02-14T19:03:40.821Z,10.57
2023-02-14T19:06:08.854Z,9.47
2023-02-14T19:08:37.427Z,9.07
2023-02-14T19:11:05.336Z,9.33
2023-02-14T19:13:32.777Z,11.10
2023-02-14T19:16:00.569Z,11.10
2023-02-14T19:18:28.064Z,11.50
2023-02-14T19:20:55.538Z,11.23
2023-02-14T19:23:22.873Z,10.00
2023-02-14T19:25:50.244Z,9.60
2023-02-14T19:28:17.732Z,11.83
2023-02-14T19:30:46.196Z,11.17
2023-02-14T19:33:13.961Z,11.03
2023-02-14T19:35:41.402Z,10.43
2023-02-14T19:38:08.756Z,9.43
2023-02-14T19:40:36.231Z,11.50
2023-02-14T19:43:03.624Z,11.67
2023-02-14T19:45:32.876Z,11.80
2023-02-14T19:48:01.748Z,11.60
2023-02-14T19:50:30.820Z,10.13
2023-02-14T19:52:58.434Z,27.87
2023-02-14T19:55:27.883Z,13.60
2023-02-14T19:57:55.833Z,12.47
2023-02-14T20:00:23.382Z,10.53
2023-02-14T20:02:51.204Z,17.60
2023-02-14T20:05:19.363Z,11.53
2023-02-14T20:07:49.296Z,12.00
2023-02-14T20:10:17.088Z,12.63
2023-02-14T20:12:44.496Z,11.07
2023-02-14T20:15:11.819Z,12.73
2023-02-14T20:17:39.190Z,12.30
2023-02-14T20:20:08.516Z,11.50
2023-02-14T20:22:36.477Z,10.60
2023-02-14T20:25:03.822Z,12.30
2023-02-14T20:27:31.177Z,12.47
2023-02-14T20:29:58.824Z,11.90
2023-02-14T20:32:26.187Z,12.47
2023-02-14T20:34:53.585Z,12.60
2023-02-14T20:37:20.973Z,12.47
2023-02-14T20:39:48.314Z,14.17
2023-02-14T20:42:15.598Z,12.40
2023-02-14T20:44:43.144Z,12.13
2023-02-14T20:47:11.293Z,12.13
2023-02-14T20:49:39.271Z,10.60
2023-02-14T20:52:06.892Z,11.57
2023-02-14T20:54:34.242Z,12.87
2023-02-14T20:57:01.787Z,11.53
2023-02-14T20:59:29.367Z,11.13
2023-02-14T21:01:57.732Z,12.60
2023-02-14T21:04:25.579Z,10.30
2023-02-14T21:06:52.974Z,11.67
2023-02-14T21:09:20.919Z,9.00
2023-02-14T21:11:48.304Z,10.53
2023-02-14T21:14:17.444Z,8.87
2023-02-14T21:16:44.907Z,8.60
2023-02-14T21:19:12.237Z,8.90
2023-02-14T21:21:39.609Z,9.77
2023-02-14T21:24:09.292Z,10.43
2023-02-14T21:26:36.591Z,10.33
2023-02-14T21:29:04.576Z,9.90
2023-02-14T21:31:32.417Z,10.10
2023-02-14T21:34:00.567Z,10.10
2023-02-14T21:36:29.437Z,10.93
2023-02-14T21:38:58.416Z,11.57
2023-02-14T21:41:26.698Z,9.90
2023-02-14T21:43:56.328Z,10.80
2023-02-14T21:46:28.094Z,10.43
2023-02-14T21:49:16.231Z,12.37
2023-02-14T21:51:44.039Z,12.10
2023-02-14T21:54:11.624Z,11.13
2023-02-14T21:56:39.601Z,11.37
2023-02-14T21:59:06.948Z,11.00
2023-02-14T22:01:35.639Z,12.03
2023-02-14T22:04:03.094Z,10.80
2023-02-14T22:06:30.580Z,12.07
2023-02-14T22:08:58.720Z,10.37
2023-02-14T22:11:26.962Z,11.60
2023-02-14T22:13:54.239Z,12.43
2023-02-14T22:16:22.277Z,11.97
2023-02-14T22:18:49.856Z,13.10
2023-02-14T22:21:18.850Z,12.57
2023-02-14T22:23:46.268Z,13.20
2023-02-14T22:26:35.473Z,11.80
2023-02-14T22:29:03.718Z,11.40
2023-02-14T22:31:34.198Z,11.47
2023-02-14T22:34:01.563Z,12.37
2023-02-14T22:36:28.927Z,12.77
2023-02-14T22:38:56.242Z,12.40
2023-02-14T22:41:24.885Z,13.67
2023-02-14T22:43:52.523Z,13.53
2023-02-14T22:46:21.391Z,11.40
2023-02-14T22:48:49.758Z,12.90
2023-02-14T22:51:33.950Z,12.77
2023-02-14T22:54:02.985Z,11.40
2023-02-14T22:56:31.956Z,12.00
2023-02-14T22:59:02.507Z,11.97
2023-02-14T23:01:29.860Z,13.13
2023-02-14T23:03:58.659Z,12.33
2023-02-14T23:06:26.934Z,11.20
2023-02-14T23:08:54.946Z,11.63
2023-02-14T23:11:23.740Z,13.20
2023-02-14T23:14:10.968Z,13.03
2023-02-14T23:16:58.186Z,13.30
2023-02-14T23:19:46.504Z,12.00
2023-02-14T23:22:15.719Z,12.50
2023-02-14T23:24:43.065Z,12.40
2023-02-14T23:27:10.466Z,13.57
2023-02-14T23:29:38.108Z,15.33
2023-02-14T23:32:06.469Z,14.67
2023-02-14T23:34:35.165Z,11.93
2023-02-14T23:37:03.253Z,12.13
2023-02-14T23:39:35.891Z,11.37
2023-02-14T23:42:03.771Z,9.60
2023-02-14T23:44:31.125Z,11.00
2023-02-14T23:46:59.477Z,11.03
2023-02-14T23:49:27.039Z,11.07
2023-02-14T23:51:55.365Z,10.63
2023-02-14T23:54:23.737Z,10.77
2023-02-14T23:56:52.189Z,10.03
2023-02-14T23:59:20.146Z,10.97
